The Farmers Guide 72-hour weather forecast

Enter Postcode:

Scattered Showers

(09:00)

15.3°C

IP2 0SS

Wind Soil
Date Time Weather Temp Rain Humid Cloud Press (mph) Temp Moist
05/05 09:00 15.3°C 0.2mm 82% 23% 990mb 23ssw (211 degrees) 12.1°C 0.3%
12:00 12.3°C 0.4mm 71% 51% 995mb 25sww (242 degrees) 12.2°C 0.3%
15:00 14.3°C 0.0mm 56% 62% 999mb 24sw (225 degrees) 12.5°C 0.3%
18:00 13.1°C 0.0mm 63% 41% 1000mb 23sw (216 degrees) 12.6°C 0.3%
21:00 10.8°C 0.0mm 72% 0% 1001mb 23ssw (209 degrees) 12.2°C 0.3%
06/05 00:00 10.1°C 0.0mm 77% 2% 1002mb 22ssw (213 degrees) 11.7°C 0.3%
03:00 9.2°C 0.0mm 81% 15% 1002mb 19ssw (210 degrees) 11.3°C 0.3%
06:00 10.0°C 0.0mm 78% 7% 1002mb 23ssw (211 degrees) 10.9°C 0.3%
09:00 13.5°C 0.0mm 58% 23% 1002mb 25sw (220 degrees) 11.1°C 0.3%
12:00 15.1°C 0.6mm 51% 22% 1002mb 29sw (231 degrees) 11.5°C 0.3%
15:00 13.1°C 0.4mm 67% 88% 1004mb 29sww (238 degrees) 11.7°C 0.3%
18:00 11.6°C 1.1mm 78% 94% 1006mb 20sww (257 degrees) 11.6°C 0.3%
21:00 8.6°C 0.3mm 89% 65% 1010mb 12sww (257 degrees) 11.2°C 0.3%
07/05 00:00 7.2°C 0.3mm 90% 34% 1013mb 11sww (258 degrees) 10.5°C 0.3%
03:00 6.0°C 0.0mm 92% 17% 1015mb 10sww (254 degrees) 9.9°C 0.3%
06:00 7.3°C 0.0mm 89% 8% 1016mb 8w (266 degrees) 9.3°C 0.3%
09:00 10.3°C 0.0mm 76% 42% 1019mb 8sww (250 degrees) 9.5°C 0.3%
12:00 14.1°C 0.0mm 60% 49% 1019mb 9w (260 degrees) 10.2°C 0.3%
15:00 15.5°C 0.0mm 52% 53% 1019mb 5sww (243 degrees) 11.0°C 0.3%
18:00 13.3°C 0.2mm 73% 65% 1019mb 5s (174 degrees) 11.4°C 0.3%
21:00 9.5°C 0.0mm 87% 94% 1019mb 5s (186 degrees) 11.1°C 0.3%
08/05 00:00 9.6°C 0.0mm 80% 97% 1018mb 7ssw (193 degrees) 10.8°C 0.3%
03:00 7.4°C 0.0mm 80% 94% 1016mb 5s (183 degrees) 10.3°C 0.3%
06:00 10.5°C 0.0mm 77% 84% 1015mb 6see (107 degrees) 9.8°C 0.3%
The Farmers Guide weather forecast is a free service for users of this website.
 
We now carry forecasts based on postcodes. Just enter your postcode and the weather page will display the forecast for the following 72 hours, broken down into three-hour intervals.
 
The forecast data provided for each three-hour period includes: a general graphic showing the likely weather conditions; average temperatures for the period; cloud cover; barometric pressure; wind speed and direction; humidity; and rainfall.
 
An indication of the likely soil temperature and soil moisture will also be displayed for most postcodes, although this data is not available for every area.
 
We hope you will find this service useful and would welcome any feedback from you.
 
 

Search

Read our full May issue here FREE!

Advertisments